»·PEaware :: N903MA KSAN-KSNA

N903MA :: KSAN-KSNA

FLIGHT INFORMATION

Flight Status: Arrived
Operator: Privately registered:
United States
More flights under this callsign
Pilot: Hyatt B. (30410)
Aircraft: Unknown
(E35L)
More flights by this aircraft type
Origin: KSAN San Diego Intl-Lindbergh
United States
Destination: KSNA John Wayne-Orange Co
United States
More flights between these airports :: More routes between these airports
Route: +CWARD2 SLI
File this flight plan on PilotEdge
Remarks:
Altitude:
(Current/Filed)
18,000ft
Speed:
(Current/Filed)
350kts
Departed: 14-Jul-20 09:58 PM
Arrived: 14-Jul-20 10:28 PM
Distance/Time
Traveled:
66nm/0:30
Distance/Time
To Go:
Arrived

Flight Plot

Page will automatically refresh every two minutes.

Flight plan parsing failed; only flown route is shown


Map Options




Map Legend


Flown Route
Filed Route
Departure Airport
Arrival Airport
Navaid (VOR, NDB)
Fix

Horizontal Profiles

Position Reports

Time Latitude Longitude Heading Altitude Ground
Speed
14-Jul-20 21:42 32.732239 -117.176881 193 20ft 0kts
14-Jul-20 21:44 32.732239 -117.176881 193 20ft 0kts
14-Jul-20 21:44 32.732239 -117.176881 193 20ft 0kts
14-Jul-20 21:46 32.732239 -117.176881 194 20ft 0kts
14-Jul-20 21:46 32.732239 -117.176881 194 20ft 0kts
14-Jul-20 21:47 32.732239 -117.176881 194 20ft 0kts
14-Jul-20 21:48 32.732239 -117.176881 194 20ft 0kts
14-Jul-20 21:49 32.732239 -117.176881 194 20ft 0kts
14-Jul-20 21:50 32.732239 -117.176881 194 20ft 0kts
14-Jul-20 21:51 32.732239 -117.176881 194 20ft 0kts
14-Jul-20 21:52 32.732239 -117.176881 194 20ft 0kts
14-Jul-20 21:53 32.732239 -117.176881 194 20ft 0kts
14-Jul-20 21:54 32.731268 -117.176242 113 20ft 8kts
14-Jul-20 21:55 32.731032 -117.175628 129 20ft 0kts
14-Jul-20 21:56 32.730164 -117.175626 266 20ft 9kts
14-Jul-20 21:57 32.739586 -117.213099 293 1245ft 200kts
14-Jul-20 21:58 32.774461 -117.272931 302 3597ft 234kts
14-Jul-20 21:59 32.812248 -117.337933 305 5631ft 234kts
14-Jul-20 22:00 32.851737 -117.399236 305 7928ft 237kts
14-Jul-20 22:01 32.892710 -117.462876 305 9998ft 250kts
14-Jul-20 22:02 32.936418 -117.530883 305 10025ft 262kts
14-Jul-20 22:03 32.981055 -117.600476 305 10026ft 266kts
14-Jul-20 22:04 33.026259 -117.671075 305 10028ft 270kts
14-Jul-20 22:05 33.074657 -117.740103 317 10040ft 273kts
14-Jul-20 22:06 33.135028 -117.801993 318 10028ft 276kts
14-Jul-20 22:07 33.194709 -117.860371 336 10004ft 280kts
14-Jul-20 22:08 33.270588 -117.881011 346 10025ft 281kts
14-Jul-20 22:09 33.347546 -117.900180 346 10035ft 282kts
14-Jul-20 22:10 33.422785 -117.923325 341 9041ft 262kts
14-Jul-20 22:11 33.488008 -117.947027 341 7896ft 234kts
14-Jul-20 22:12 33.550548 -117.969788 341 6461ft 237kts
14-Jul-20 22:13 33.612520 -117.992368 342 4953ft 230kts
14-Jul-20 22:14 33.673625 -118.014662 342 3267ft 233kts
14-Jul-20 22:15 33.731614 -118.035848 342 2239ft 203kts
14-Jul-20 22:16 33.776620 -118.057079 299 1842ft 175kts
14-Jul-20 22:17 33.748086 -118.075437 136 2282ft 214kts
14-Jul-20 22:18 33.707276 -118.035535 159 2214ft 173kts
14-Jul-20 22:19 33.661239 -118.020812 167 2235ft 177kts
14-Jul-20 22:20 33.613808 -118.007605 167 2230ft 188kts
14-Jul-20 22:21 33.564363 -117.993885 167 2229ft 194kts
14-Jul-20 22:22 33.512792 -117.975094 131 2192ft 198kts
14-Jul-20 22:23 33.538620 -117.934555 12 2230ft 192kts
14-Jul-20 22:24 33.591114 -117.919680 12 2228ft 195kts
14-Jul-20 22:25 33.636929 -117.893155 27 1519ft 173kts
14-Jul-20 22:26 33.674146 -117.869806 26 63ft 115kts
14-Jul-20 22:27 33.681147 -117.866353 290 63ft 11kts
14-Jul-20 22:28 33.678722 -117.868410 205 63ft 12kts
14-Jul-20 22:29 33.678616 -117.869003 22 63ft 0kts
14-Jul-20 22:30 33.678616 -117.869003 22 63ft 0kts
14-Jul-20 22:31 33.678616 -117.869003 22 63ft 0kts
14-Jul-20 22:32 33.678616 -117.869003 22 63ft 0kts
14-Jul-20 22:33 33.678616 -117.869003 22 63ft 0kts
14-Jul-20 22:34 33.678616 -117.869003 22 63ft 0kts
14-Jul-20 22:35 33.678616 -117.869003 22 63ft 0kts
14-Jul-20 22:36 33.678616 -117.869003 22 63ft 0kts
14-Jul-20 22:37 33.678616 -117.869003 22 63ft 0kts
14-Jul-20 22:38 33.678616 -117.869003 22 63ft 0kts
14-Jul-20 22:39 33.678616 -117.869003 22 63ft 0kts
14-Jul-20 22:40 33.678616 -117.869003 22 63ft 0kts
14-Jul-20 22:41 33.678616 -117.869003 22 63ft 0kts
14-Jul-20 22:42 33.678616 -117.869003 22 63ft 0kts

Navigation Log

Ident Type
Flight plan parsing failed, navigation log unavailable